sensor_id;sensor_type;location;lat;lon;timestamp;pressure;altitude;pressure_sealevel;temperature;humidity
84524;BME280;74765;44.538;18.668;2024-02-14T00:01:06;99394.50;;;11.21;47.26
84524;BME280;74765;44.538;18.668;2024-02-14T00:03:34;99399.31;;;11.32;46.86
84524;BME280;74765;44.538;18.668;2024-02-14T00:06:00;99404.69;;;11.11;47.46
84524;BME280;74765;44.538;18.668;2024-02-14T00:08:26;99403.00;;;10.89;48.10
84524;BME280;74765;44.538;18.668;2024-02-14T00:10:52;99408.50;;;10.81;48.91
84524;BME280;74765;44.538;18.668;2024-02-14T00:13:18;99411.50;;;10.92;48.04
84524;BME280;74765;44.538;18.668;2024-02-14T00:15:43;99408.00;;;10.92;48.42
84524;BME280;74765;44.538;18.668;2024-02-14T00:18:11;99412.97;;;11.16;47.65
84524;BME280;74765;44.538;18.668;2024-02-14T00:20:37;99411.13;;;10.95;47.33
84524;BME280;74765;44.538;18.668;2024-02-14T00:23:04;99416.41;;;11.10;47.53
84524;BME280;74765;44.538;18.668;2024-02-14T00:25:30;99423.34;;;11.26;47.28
84524;BME280;74765;44.538;18.668;2024-02-14T00:27:56;99417.22;;;11.32;46.52
84524;BME280;74765;44.538;18.668;2024-02-14T00:30:22;99419.31;;;11.36;46.42
84524;BME280;74765;44.538;18.668;2024-02-14T00:32:49;99418.44;;;11.29;47.55
84524;BME280;74765;44.538;18.668;2024-02-14T00:35:15;99422.19;;;11.35;46.59
84524;BME280;74765;44.538;18.668;2024-02-14T00:37:41;99419.31;;;11.36;46.95
84524;BME280;74765;44.538;18.668;2024-02-14T00:40:07;99425.66;;;11.29;46.87
84524;BME280;74765;44.538;18.668;2024-02-14T00:42:34;99426.47;;;11.08;46.81
84524;BME280;74765;44.538;18.668;2024-02-14T00:44:59;99428.72;;;11.26;47.66
84524;BME280;74765;44.538;18.668;2024-02-14T00:47:25;99423.72;;;11.23;47.06
84524;BME280;74765;44.538;18.668;2024-02-14T00:49:51;99434.97;;;11.12;46.20
84524;BME280;74765;44.538;18.668;2024-02-14T00:52:17;99438.38;;;11.06;46.72
84524;BME280;74765;44.538;18.668;2024-02-14T00:54:43;99439.59;;;11.03;46.76
84524;BME280;74765;44.538;18.668;2024-02-14T00:57:08;99433.03;;;11.06;47.81
84524;BME280;74765;44.538;18.668;2024-02-14T00:59:35;99433.47;;;11.09;47.11
84524;BME280;74765;44.538;18.668;2024-02-14T01:02:00;99434.53;;;10.93;47.07
84524;BME280;74765;44.538;18.668;2024-02-14T01:04:26;99445.16;;;11.02;47.23
84524;BME280;74765;44.538;18.668;2024-02-14T01:06:52;99441.41;;;10.81;47.08
84524;BME280;74765;44.538;18.668;2024-02-14T01:09:18;99439.34;;;10.62;47.71
84524;BME280;74765;44.538;18.668;2024-02-14T01:11:44;99449.38;;;10.60;48.08
84524;BME280;74765;44.538;18.668;2024-02-14T01:14:10;99448.75;;;10.58;48.10
84524;BME280;74765;44.538;18.668;2024-02-14T01:16:44;99447.91;;;10.72;48.66
84524;BME280;74765;44.538;18.668;2024-02-14T01:19:11;99452.72;;;10.62;47.75
84524;BME280;74765;44.538;18.668;2024-02-14T01:21:37;99460.75;;;10.62;49.02
84524;BME280;74765;44.538;18.668;2024-02-14T01:24:03;99450.47;;;10.80;48.65
84524;BME280;74765;44.538;18.668;2024-02-14T01:26:31;99450.84;;;10.77;48.95
84524;BME280;74765;44.538;18.668;2024-02-14T01:28:57;99451.44;;;10.94;47.77
84524;BME280;74765;44.538;18.668;2024-02-14T01:31:26;99457.00;;;10.92;48.74
84524;BME280;74765;44.538;18.668;2024-02-14T01:33:53;99459.88;;;10.76;48.92
84524;BME280;74765;44.538;18.668;2024-02-14T01:36:18;99463.41;;;10.98;48.85
84524;BME280;74765;44.538;18.668;2024-02-14T01:38:44;99455.59;;;10.96;48.89
84524;BME280;74765;44.538;18.668;2024-02-14T01:41:10;99466.28;;;11.18;47.91
84524;BME280;74765;44.538;18.668;2024-02-14T01:43:36;99460.53;;;11.00;48.73
84524;BME280;74765;44.538;18.668;2024-02-14T01:46:05;99462.97;;;10.94;47.51
84524;BME280;74765;44.538;18.668;2024-02-14T01:48:31;99458.44;;;10.95;47.89
84524;BME280;74765;44.538;18.668;2024-02-14T01:50:58;99457.56;;;11.09;47.99
84524;BME280;74765;44.538;18.668;2024-02-14T01:53:25;99460.09;;;11.17;46.77
84524;BME280;74765;44.538;18.668;2024-02-14T01:55:51;99452.78;;;11.05;47.47
84524;BME280;74765;44.538;18.668;2024-02-14T01:58:18;99456.03;;;11.00;48.49
84524;BME280;74765;44.538;18.668;2024-02-14T02:00:44;99451.34;;;11.02;48.07
84524;BME280;74765;44.538;18.668;2024-02-14T02:03:13;99456.72;;;11.09;48.17
84524;BME280;74765;44.538;18.668;2024-02-14T02:05:41;99456.91;;;11.07;48.15
84524;BME280;74765;44.538;18.668;2024-02-14T02:08:08;99453.53;;;10.98;48.75
84524;BME280;74765;44.538;18.668;2024-02-14T02:10:35;99456.50;;;10.89;48.51
84524;BME280;74765;44.538;18.668;2024-02-14T02:13:01;99460.47;;;10.93;48.21
84524;BME280;74765;44.538;18.668;2024-02-14T02:15:27;99458.34;;;10.88;48.84
84524;BME280;74765;44.538;18.668;2024-02-14T02:17:54;99452.94;;;10.82;48.54
84524;BME280;74765;44.538;18.668;2024-02-14T02:20:20;99457.28;;;10.83;48.71
84524;BME280;74765;44.538;18.668;2024-02-14T02:22:47;99463.56;;;10.75;49.05
84524;BME280;74765;44.538;18.668;2024-02-14T02:25:15;99456.78;;;10.58;49.82
84524;BME280;74765;44.538;18.668;2024-02-14T02:27:41;99457.88;;;10.64;48.78
84524;BME280;74765;44.538;18.668;2024-02-14T02:30:07;99466.09;;;10.62;49.03
84524;BME280;74765;44.538;18.668;2024-02-14T02:32:39;99473.00;;;10.57;49.90
84524;BME280;74765;44.538;18.668;2024-02-14T02:35:05;99468.88;;;10.54;49.76
84524;BME280;74765;44.538;18.668;2024-02-14T02:37:31;99474.50;;;10.59;49.87
84524;BME280;74765;44.538;18.668;2024-02-14T02:39:57;99476.59;;;10.64;49.27
84524;BME280;74765;44.538;18.668;2024-02-14T02:42:23;99480.84;;;10.73;49.74
84524;BME280;74765;44.538;18.668;2024-02-14T02:44:50;99474.66;;;10.72;49.54
84524;BME280;74765;44.538;18.668;2024-02-14T02:47:16;99475.94;;;10.62;49.51
84524;BME280;74765;44.538;18.668;2024-02-14T02:49:43;99485.69;;;10.69;49.04
84524;BME280;74765;44.538;18.668;2024-02-14T02:52:10;99483.03;;;10.69;49.06
84524;BME280;74765;44.538;18.668;2024-02-14T02:54:36;99496.78;;;10.66;50.35
84524;BME280;74765;44.538;18.668;2024-02-14T02:57:02;99493.00;;;10.61;49.91
84524;BME280;74765;44.538;18.668;2024-02-14T02:59:31;99501.59;;;10.56;50.49
84524;BME280;74765;44.538;18.668;2024-02-14T03:01:58;99502.50;;;10.63;49.58
84524;BME280;74765;44.538;18.668;2024-02-14T03:04:24;99502.88;;;10.60;50.18
84524;BME280;74765;44.538;18.668;2024-02-14T03:06:50;99499.56;;;10.58;50.26
84524;BME280;74765;44.538;18.668;2024-02-14T03:09:16;99510.25;;;10.58;49.89
84524;BME280;74765;44.538;18.668;2024-02-14T03:11:46;99508.69;;;10.64;50.43
84524;BME280;74765;44.538;18.668;2024-02-14T03:14:13;99511.81;;;10.67;50.24
84524;BME280;74765;44.538;18.668;2024-02-14T03:16:39;99511.53;;;10.62;49.63
84524;BME280;74765;44.538;18.668;2024-02-14T03:19:04;99511.94;;;10.59;49.85
84524;BME280;74765;44.538;18.668;2024-02-14T03:21:31;99519.13;;;10.59;50.18
84524;BME280;74765;44.538;18.668;2024-02-14T03:23:58;99514.94;;;10.56;50.13
84524;BME280;74765;44.538;18.668;2024-02-14T03:26:24;99523.06;;;10.63;49.83
84524;BME280;74765;44.538;18.668;2024-02-14T03:28:52;99516.72;;;10.64;50.20
84524;BME280;74765;44.538;18.668;2024-02-14T03:31:19;99512.66;;;10.68;49.40
84524;BME280;74765;44.538;18.668;2024-02-14T03:33:44;99517.91;;;10.61;49.51
84524;BME280;74765;44.538;18.668;2024-02-14T03:36:10;99527.31;;;10.42;49.89
84524;BME280;74765;44.538;18.668;2024-02-14T03:38:36;99523.63;;;10.43;50.08
84524;BME280;74765;44.538;18.668;2024-02-14T03:41:02;99531.94;;;10.48;50.38
84524;BME280;74765;44.538;18.668;2024-02-14T03:43:28;99541.91;;;10.55;49.59
84524;BME280;74765;44.538;18.668;2024-02-14T03:45:54;99540.22;;;10.39;50.12
84524;BME280;74765;44.538;18.668;2024-02-14T03:48:20;99541.22;;;10.67;49.98
84524;BME280;74765;44.538;18.668;2024-02-14T03:50:46;99549.63;;;10.64;49.55
84524;BME280;74765;44.538;18.668;2024-02-14T03:53:12;99555.44;;;10.68;48.93
84524;BME280;74765;44.538;18.668;2024-02-14T03:55:38;99565.03;;;10.62;48.51
84524;BME280;74765;44.538;18.668;2024-02-14T03:58:03;99561.44;;;10.40;47.56
84524;BME280;74765;44.538;18.668;2024-02-14T04:00:30;99562.91;;;10.43;47.62
84524;BME280;74765;44.538;18.668;2024-02-14T04:02:56;99564.75;;;10.42;48.12
84524;BME280;74765;44.538;18.668;2024-02-14T04:05:25;99566.97;;;10.39;48.93
84524;BME280;74765;44.538;18.668;2024-02-14T04:07:55;99567.03;;;10.45;48.69
84524;BME280;74765;44.538;18.668;2024-02-14T04:10:21;99567.81;;;10.69;47.90
84524;BME280;74765;44.538;18.668;2024-02-14T04:12:48;99560.63;;;10.55;48.64
84524;BME280;74765;44.538;18.668;2024-02-14T04:15:14;99566.28;;;10.37;49.07
84524;BME280;74765;44.538;18.668;2024-02-14T04:17:39;99567.06;;;10.31;49.39
84524;BME280;74765;44.538;18.668;2024-02-14T04:20:06;99567.78;;;10.39;49.40
84524;BME280;74765;44.538;18.668;2024-02-14T04:22:32;99571.31;;;10.40;50.15
84524;BME280;74765;44.538;18.668;2024-02-14T04:24:57;99578.78;;;10.44;48.23
84524;BME280;74765;44.538;18.668;2024-02-14T04:27:23;99578.19;;;10.34;48.98
84524;BME280;74765;44.538;18.668;2024-02-14T04:29:49;99585.66;;;10.39;47.77
84524;BME280;74765;44.538;18.668;2024-02-14T04:32:15;99581.13;;;10.25;48.97
84524;BME280;74765;44.538;18.668;2024-02-14T04:34:41;99584.41;;;10.12;49.54
84524;BME280;74765;44.538;18.668;2024-02-14T04:37:08;99590.72;;;10.34;48.55
84524;BME280;74765;44.538;18.668;2024-02-14T04:39:38;99593.78;;;10.31;49.17
84524;BME280;74765;44.538;18.668;2024-02-14T04:42:04;99591.03;;;10.39;48.59
84524;BME280;74765;44.538;18.668;2024-02-14T04:44:31;99593.13;;;10.29;48.74
84524;BME280;74765;44.538;18.668;2024-02-14T04:46:57;99593.66;;;10.24;49.03
84524;BME280;74765;44.538;18.668;2024-02-14T04:49:26;99597.72;;;10.20;48.62
84524;BME280;74765;44.538;18.668;2024-02-14T04:51:54;99593.53;;;10.18;48.82
84524;BME280;74765;44.538;18.668;2024-02-14T04:54:20;99599.19;;;10.23;49.17
84524;BME280;74765;44.538;18.668;2024-02-14T04:56:46;99599.22;;;10.15;49.42
84524;BME280;74765;44.538;18.668;2024-02-14T04:59:12;99600.47;;;10.27;48.92
84524;BME280;74765;44.538;18.668;2024-02-14T05:01:38;99603.22;;;9.96;50.45
84524;BME280;74765;44.538;18.668;2024-02-14T05:04:06;99603.28;;;10.10;50.33
84524;BME280;74765;44.538;18.668;2024-02-14T05:06:32;99601.50;;;10.26;49.77
84524;BME280;74765;44.538;18.668;2024-02-14T05:08:58;99601.84;;;10.23;48.85
84524;BME280;74765;44.538;18.668;2024-02-14T05:11:24;99597.09;;;10.10;49.38
84524;BME280;74765;44.538;18.668;2024-02-14T05:13:50;99598.66;;;10.04;49.56
84524;BME280;74765;44.538;18.668;2024-02-14T05:16:20;99614.56;;;9.98;50.21
84524;BME280;74765;44.538;18.668;2024-02-14T05:18:46;99610.28;;;10.12;49.89
84524;BME280;74765;44.538;18.668;2024-02-14T05:21:12;99609.47;;;10.11;50.20
84524;BME280;74765;44.538;18.668;2024-02-14T05:23:37;99612.72;;;9.98;50.99
84524;BME280;74765;44.538;18.668;2024-02-14T05:26:03;99615.53;;;9.82;50.80
84524;BME280;74765;44.538;18.668;2024-02-14T05:28:30;99614.69;;;9.82;51.07
84524;BME280;74765;44.538;18.668;2024-02-14T05:30:59;99614.25;;;9.47;52.46
84524;BME280;74765;44.538;18.668;2024-02-14T05:33:26;99619.75;;;9.46;51.69
84524;BME280;74765;44.538;18.668;2024-02-14T05:35:52;99627.84;;;9.60;51.23
84524;BME280;74765;44.538;18.668;2024-02-14T05:38:18;99620.63;;;9.69;50.90
84524;BME280;74765;44.538;18.668;2024-02-14T05:40:47;99629.75;;;9.52;51.63
84524;BME280;74765;44.538;18.668;2024-02-14T05:43:13;99626.22;;;9.29;51.59
84524;BME280;74765;44.538;18.668;2024-02-14T05:45:39;99632.91;;;9.25;51.41
84524;BME280;74765;44.538;18.668;2024-02-14T05:48:05;99639.19;;;9.32;52.31
84524;BME280;74765;44.538;18.668;2024-02-14T05:50:31;99637.50;;;9.39;51.14
84524;BME280;74765;44.538;18.668;2024-02-14T05:52:58;99646.66;;;9.36;51.40
84524;BME280;74765;44.538;18.668;2024-02-14T05:55:24;99648.06;;;9.24;50.80
84524;BME280;74765;44.538;18.668;2024-02-14T05:57:53;99648.75;;;9.18;50.96
84524;BME280;74765;44.538;18.668;2024-02-14T06:00:20;99648.34;;;9.37;50.70
84524;BME280;74765;44.538;18.668;2024-02-14T06:02:48;99656.88;;;9.33;50.52
84524;BME280;74765;44.538;18.668;2024-02-14T06:05:15;99653.88;;;9.36;51.35
84524;BME280;74765;44.538;18.668;2024-02-14T06:07:41;99658.81;;;9.70;51.08
84524;BME280;74765;44.538;18.668;2024-02-14T06:10:08;99657.25;;;9.83;49.39
84524;BME280;74765;44.538;18.668;2024-02-14T06:12:34;99664.06;;;10.17;49.07
84524;BME280;74765;44.538;18.668;2024-02-14T06:15:01;99671.78;;;10.49;47.91
84524;BME280;74765;44.538;18.668;2024-02-14T06:17:27;99679.59;;;10.73;47.20
84524;BME280;74765;44.538;18.668;2024-02-14T06:19:56;99669.53;;;11.05;46.90
84524;BME280;74765;44.538;18.668;2024-02-14T06:22:23;99675.78;;;11.41;46.11
84524;BME280;74765;44.538;18.668;2024-02-14T06:24:49;99679.69;;;11.74;45.88
84524;BME280;74765;44.538;18.668;2024-02-14T06:27:15;99684.03;;;12.11;43.96
84524;BME280;74765;44.538;18.668;2024-02-14T06:29:44;99689.88;;;12.21;43.15
84524;BME280;74765;44.538;18.668;2024-02-14T06:32:19;99693.00;;;12.46;43.36
84524;BME280;74765;44.538;18.668;2024-02-14T06:37:45;99688.03;;;12.99;40.90
84524;BME280;74765;44.538;18.668;2024-02-14T06:46:53;99706.38;;;13.64;39.28
84524;BME280;74765;44.538;18.668;2024-02-14T06:49:19;99705.56;;;13.64;38.96
84524;BME280;74765;44.538;18.668;2024-02-14T06:51:46;99695.34;;;14.00;37.88
84524;BME280;74765;44.538;18.668;2024-02-14T06:54:12;99699.28;;;14.17;38.88
84524;BME280;74765;44.538;18.668;2024-02-14T06:56:58;99696.25;;;14.40;37.99
84524;BME280;74765;44.538;18.668;2024-02-14T06:59:25;99702.44;;;14.73;36.95
84524;BME280;74765;44.538;18.668;2024-02-14T07:01:57;99700.78;;;14.99;36.39
84524;BME280;74765;44.538;18.668;2024-02-14T07:04:31;99700.97;;;14.97;36.58
84524;BME280;74765;44.538;18.668;2024-02-14T07:07:00;99707.97;;;15.31;35.80
84524;BME280;74765;44.538;18.668;2024-02-14T07:09:29;99710.03;;;15.36;35.45
84524;BME280;74765;44.538;18.668;2024-02-14T07:12:09;99709.38;;;15.47;34.77
84524;BME280;74765;44.538;18.668;2024-02-14T07:14:39;99707.16;;;15.88;34.79
84524;BME280;74765;44.538;18.668;2024-02-14T07:17:07;99711.72;;;15.88;35.22
84524;BME280;74765;44.538;18.668;2024-02-14T07:19:39;99711.84;;;16.37;34.07
84524;BME280;74765;44.538;18.668;2024-02-14T07:22:24;99713.44;;;16.20;34.33
84524;BME280;74765;44.538;18.668;2024-02-14T07:24:50;99721.41;;;15.44;34.89
84524;BME280;74765;44.538;18.668;2024-02-14T07:27:19;99721.06;;;15.14;35.95
84524;BME280;74765;44.538;18.668;2024-02-14T07:29:52;99723.91;;;15.39;35.30
84524;BME280;74765;44.538;18.668;2024-02-14T07:32:21;99721.44;;;15.95;34.75
84524;BME280;74765;44.538;18.668;2024-02-14T07:34:47;99721.38;;;16.02;34.02
84524;BME280;74765;44.538;18.668;2024-02-14T07:37:14;99725.06;;;15.69;34.96
84524;BME280;74765;44.538;18.668;2024-02-14T07:39:45;99716.91;;;15.25;34.78
84524;BME280;74765;44.538;18.668;2024-02-14T07:42:12;99719.59;;;15.18;35.53
84524;BME280;74765;44.538;18.668;2024-02-14T07:44:41;99719.97;;;15.42;35.86
84524;BME280;74765;44.538;18.668;2024-02-14T07:47:10;99722.78;;;16.11;34.05
84524;BME280;74765;44.538;18.668;2024-02-14T07:49:36;99723.03;;;16.09;33.97
84524;BME280;74765;44.538;18.668;2024-02-14T07:52:05;99729.19;;;16.79;33.13
84524;BME280;74765;44.538;18.668;2024-02-14T07:54:31;99729.09;;;16.68;33.07
84524;BME280;74765;44.538;18.668;2024-02-14T07:57:03;99733.63;;;17.17;32.48
84524;BME280;74765;44.538;18.668;2024-02-14T07:59:29;99717.69;;;17.52;32.00
84524;BME280;74765;44.538;18.668;2024-02-14T08:02:04;99726.00;;;17.32;31.69
84524;BME280;74765;44.538;18.668;2024-02-14T08:04:40;99723.25;;;16.95;32.14
84524;BME280;74765;44.538;18.668;2024-02-14T08:07:12;99729.34;;;17.70;31.92
84524;BME280;74765;44.538;18.668;2024-02-14T08:09:44;99729.72;;;17.74;31.88
84524;BME280;74765;44.538;18.668;2024-02-14T08:12:10;99733.31;;;17.06;32.17
84524;BME280;74765;44.538;18.668;2024-02-14T08:14:36;99729.53;;;17.32;32.49
84524;BME280;74765;44.538;18.668;2024-02-14T08:17:02;99728.97;;;17.05;32.70
84524;BME280;74765;44.538;18.668;2024-02-14T08:19:28;99731.41;;;17.14;32.13
84524;BME280;74765;44.538;18.668;2024-02-14T08:21:54;99724.34;;;17.31;32.29
84524;BME280;74765;44.538;18.668;2024-02-14T08:24:29;99717.19;;;17.61;31.67
84524;BME280;74765;44.538;18.668;2024-02-14T08:27:02;99706.34;;;17.43;31.78
84524;BME280;74765;44.538;18.668;2024-02-14T08:29:32;99715.97;;;17.75;31.43
84524;BME280;74765;44.538;18.668;2024-02-14T08:31:58;99708.81;;;19.05;28.93
84524;BME280;74765;44.538;18.668;2024-02-14T08:34:34;99707.53;;;19.83;27.95
84524;BME280;74765;44.538;18.668;2024-02-14T08:37:00;99702.00;;;19.78;27.65
84524;BME280;74765;44.538;18.668;2024-02-14T08:39:28;99707.59;;;18.78;29.02
84524;BME280;74765;44.538;18.668;2024-02-14T08:41:54;99707.03;;;19.22;29.76
84524;BME280;74765;44.538;18.668;2024-02-14T08:44:23;99702.69;;;20.41;27.29
84524;BME280;74765;44.538;18.668;2024-02-14T08:46:53;99700.06;;;20.63;26.62
84524;BME280;74765;44.538;18.668;2024-02-14T08:49:28;99702.19;;;20.16;26.93
84524;BME280;74765;44.538;18.668;2024-02-14T08:52:14;99704.28;;;20.71;25.74
84524;BME280;74765;44.538;18.668;2024-02-14T08:54:43;99706.44;;;20.24;26.46
84524;BME280;74765;44.538;18.668;2024-02-14T08:57:09;99698.19;;;20.80;25.33
84524;BME280;74765;44.538;18.668;2024-02-14T08:59:35;99712.03;;;20.62;25.55
84524;BME280;74765;44.538;18.668;2024-02-14T09:02:01;99710.78;;;20.25;26.10
84524;BME280;74765;44.538;18.668;2024-02-14T09:04:28;99721.53;;;19.91;27.20
84524;BME280;74765;44.538;18.668;2024-02-14T09:06:56;99710.28;;;19.71;27.17
84524;BME280;74765;44.538;18.668;2024-02-14T09:09:22;99706.22;;;19.45;26.76
84524;BME280;74765;44.538;18.668;2024-02-14T09:11:49;99706.97;;;20.37;26.46
84524;BME280;74765;44.538;18.668;2024-02-14T09:14:17;99708.16;;;20.75;25.97
84524;BME280;74765;44.538;18.668;2024-02-14T09:16:52;99713.25;;;21.60;24.52
84524;BME280;74765;44.538;18.668;2024-02-14T09:19:23;99703.63;;;20.97;25.06
84524;BME280;74765;44.538;18.668;2024-02-14T09:21:51;99703.44;;;21.20;24.86
84524;BME280;74765;44.538;18.668;2024-02-14T09:24:39;99709.72;;;19.97;26.19
84524;BME280;74765;44.538;18.668;2024-02-14T09:27:07;99704.72;;;20.34;26.48
84524;BME280;74765;44.538;18.668;2024-02-14T09:29:35;99707.88;;;19.00;28.18
84524;BME280;74765;44.538;18.668;2024-02-14T09:32:04;99710.91;;;19.61;27.91
84524;BME280;74765;44.538;18.668;2024-02-14T09:35:21;99708.63;;;20.38;26.55
84524;BME280;74765;44.538;18.668;2024-02-14T09:37:54;99708.31;;;21.02;25.63
84524;BME280;74765;44.538;18.668;2024-02-14T09:40:20;99706.88;;;20.32;26.35
84524;BME280;74765;44.538;18.668;2024-02-14T09:43:09;99709.66;;;20.66;25.75
84524;BME280;74765;44.538;18.668;2024-02-14T09:45:37;99708.13;;;20.41;26.67
84524;BME280;74765;44.538;18.668;2024-02-14T09:48:07;99704.78;;;19.94;26.11
84524;BME280;74765;44.538;18.668;2024-02-14T09:50:37;99701.91;;;20.29;26.20
84524;BME280;74765;44.538;18.668;2024-02-14T09:53:24;99703.84;;;20.45;25.99
84524;BME280;74765;44.538;18.668;2024-02-14T09:55:52;99700.94;;;21.35;24.89
84524;BME280;74765;44.538;18.668;2024-02-14T09:58:20;99697.38;;;20.46;25.88
84524;BME280;74765;44.538;18.668;2024-02-14T10:00:46;99692.50;;;19.92;27.48
84524;BME280;74765;44.538;18.668;2024-02-14T10:03:25;99693.00;;;19.37;28.35
84524;BME280;74765;44.538;18.668;2024-02-14T10:05:54;99686.88;;;19.82;27.08
84524;BME280;74765;44.538;18.668;2024-02-14T10:08:29;99686.09;;;19.70;27.53
84524;BME280;74765;44.538;18.668;2024-02-14T10:10:57;99682.88;;;19.84;28.01
84524;BME280;74765;44.538;18.668;2024-02-14T10:13:27;99681.22;;;19.20;28.39
84524;BME280;74765;44.538;18.668;2024-02-14T10:15:58;99673.66;;;19.85;27.65
84524;BME280;74765;44.538;18.668;2024-02-14T10:18:24;99671.69;;;19.29;28.05
84524;BME280;74765;44.538;18.668;2024-02-14T10:21:14;99665.34;;;19.00;28.61
84524;BME280;74765;44.538;18.668;2024-02-14T10:23:50;99669.09;;;20.02;27.63
84524;BME280;74765;44.538;18.668;2024-02-14T10:26:24;99674.47;;;20.59;27.26
84524;BME280;74765;44.538;18.668;2024-02-14T10:28:53;99665.16;;;20.55;26.67
84524;BME280;74765;44.538;18.668;2024-02-14T10:31:28;99670.22;;;20.18;28.09
84524;BME280;74765;44.538;18.668;2024-02-14T10:34:24;99661.78;;;20.81;26.53
84524;BME280;74765;44.538;18.668;2024-02-14T10:36:56;99659.03;;;20.98;26.06
84524;BME280;74765;44.538;18.668;2024-02-14T10:41:59;99653.06;;;20.46;26.58
84524;BME280;74765;44.538;18.668;2024-02-14T10:44:29;99659.53;;;18.97;28.29
84524;BME280;74765;44.538;18.668;2024-02-14T10:47:02;99655.44;;;18.18;28.90
84524;BME280;74765;44.538;18.668;2024-02-14T10:49:37;99663.38;;;17.17;30.94
84524;BME280;74765;44.538;18.668;2024-02-14T10:52:06;99656.94;;;17.18;31.27
84524;BME280;74765;44.538;18.668;2024-02-14T10:54:37;99656.25;;;17.59;30.69
84524;BME280;74765;44.538;18.668;2024-02-14T10:57:06;99650.53;;;17.12;31.18
84524;BME280;74765;44.538;18.668;2024-02-14T10:59:53;99650.84;;;16.61;31.93
84524;BME280;74765;44.538;18.668;2024-02-14T11:02:21;99653.34;;;16.56;31.79
84524;BME280;74765;44.538;18.668;2024-02-14T11:07:34;99651.38;;;15.38;33.88
84524;BME280;74765;44.538;18.668;2024-02-14T11:12:35;99645.44;;;16.86;31.36
84524;BME280;74765;44.538;18.668;2024-02-14T11:15:26;99643.56;;;17.41;29.75
84524;BME280;74765;44.538;18.668;2024-02-14T11:18:06;99640.09;;;17.16;29.89
84524;BME280;74765;44.538;18.668;2024-02-14T11:20:35;99634.22;;;17.55;30.08
84524;BME280;74765;44.538;18.668;2024-02-14T11:23:06;99633.38;;;17.91;29.61
84524;BME280;74765;44.538;18.668;2024-02-14T11:29:56;99635.53;;;17.82;29.25
84524;BME280;74765;44.538;18.668;2024-02-14T11:32:48;99631.72;;;17.90;28.93
84524;BME280;74765;44.538;18.668;2024-02-14T11:35:15;99639.91;;;17.83;28.37
84524;BME280;74765;44.538;18.668;2024-02-14T11:37:41;99639.50;;;17.98;28.32
84524;BME280;74765;44.538;18.668;2024-02-14T11:40:14;99628.66;;;17.68;28.90
84524;BME280;74765;44.538;18.668;2024-02-14T11:42:43;99642.75;;;17.04;28.84
84524;BME280;74765;44.538;18.668;2024-02-14T11:45:13;99630.34;;;17.33;29.29
84524;BME280;74765;44.538;18.668;2024-02-14T11:47:59;99626.81;;;17.50;28.54
84524;BME280;74765;44.538;18.668;2024-02-14T11:51:06;99637.34;;;17.22;29.67
84524;BME280;74765;44.538;18.668;2024-02-14T11:53:38;99634.84;;;16.84;29.37
84524;BME280;74765;44.538;18.668;2024-02-14T11:56:26;99633.91;;;17.15;29.82
84524;BME280;74765;44.538;18.668;2024-02-14T11:59:15;99634.53;;;17.65;28.22
84524;BME280;74765;44.538;18.668;2024-02-14T12:01:45;99625.41;;;17.78;28.65
84524;BME280;74765;44.538;18.668;2024-02-14T12:07:23;99617.69;;;17.33;28.96
84524;BME280;74765;44.538;18.668;2024-02-14T12:10:10;99621.19;;;17.52;29.02
84524;BME280;74765;44.538;18.668;2024-02-14T12:13:22;99624.72;;;17.16;30.37
84524;BME280;74765;44.538;18.668;2024-02-14T12:15:49;99622.50;;;17.79;29.06
84524;BME280;74765;44.538;18.668;2024-02-14T12:18:17;99617.84;;;17.68;28.54
84524;BME280;74765;44.538;18.668;2024-02-14T12:20:46;99617.00;;;17.38;28.77
84524;BME280;74765;44.538;18.668;2024-02-14T12:23:18;99611.28;;;17.28;29.92
84524;BME280;74765;44.538;18.668;2024-02-14T12:25:46;99607.06;;;18.10;29.24
84524;BME280;74765;44.538;18.668;2024-02-14T12:28:20;99617.63;;;17.52;29.15
84524;BME280;74765;44.538;18.668;2024-02-14T12:30:50;99607.16;;;17.73;29.78
84524;BME280;74765;44.538;18.668;2024-02-14T12:33:24;99608.84;;;17.56;29.14
84524;BME280;74765;44.538;18.668;2024-02-14T12:35:52;99602.16;;;17.11;28.81
84524;BME280;74765;44.538;18.668;2024-02-14T12:38:27;99616.13;;;16.65;29.56
84524;BME280;74765;44.538;18.668;2024-02-14T12:44:19;99586.06;;;16.79;28.64
84524;BME280;74765;44.538;18.668;2024-02-14T12:46:57;99591.16;;;16.69;29.64
84524;BME280;74765;44.538;18.668;2024-02-14T12:49:23;99599.31;;;17.05;29.39
84524;BME280;74765;44.538;18.668;2024-02-14T12:51:54;99593.13;;;16.98;28.82
84524;BME280;74765;44.538;18.668;2024-02-14T12:54:28;99602.75;;;16.94;28.81
84524;BME280;74765;44.538;18.668;2024-02-14T12:57:00;99601.81;;;16.82;28.63
84524;BME280;74765;44.538;18.668;2024-02-14T12:59:45;99602.88;;;16.56;29.20
84524;BME280;74765;44.538;18.668;2024-02-14T13:02:12;99601.84;;;16.33;30.13
84524;BME280;74765;44.538;18.668;2024-02-14T13:04:41;99597.75;;;16.73;28.57
84524;BME280;74765;44.538;18.668;2024-02-14T13:07:07;99595.69;;;16.75;28.89
84524;BME280;74765;44.538;18.668;2024-02-14T13:09:37;99597.13;;;16.96;28.59
84524;BME280;74765;44.538;18.668;2024-02-14T13:12:04;99599.72;;;17.02;27.92
84524;BME280;74765;44.538;18.668;2024-02-14T13:14:35;99592.81;;;17.06;27.42
84524;BME280;74765;44.538;18.668;2024-02-14T13:17:03;99594.59;;;17.31;27.72
84524;BME280;74765;44.538;18.668;2024-02-14T13:19:32;99590.72;;;17.09;27.89
84524;BME280;74765;44.538;18.668;2024-02-14T13:21:59;99589.66;;;17.28;27.52
84524;BME280;74765;44.538;18.668;2024-02-14T13:25:10;99591.47;;;17.16;27.27
84524;BME280;74765;44.538;18.668;2024-02-14T13:27:23;99594.31;;;17.02;26.87
84524;BME280;74765;44.538;18.668;2024-02-14T13:30:10;99598.84;;;16.90;27.26